Blaine, WA (98230)

5:03 AM PDT on September 05, 2015 (GMT -0700)
Birch Bay / Blaine WA | | Change Station
CLOSE
Current Station
Personal Weather Station
Location: Blaine, WA
Elevation: 60 ft
Nearby Weather Stations

Elev 60 ft 48.94 °N, 122.73 °W | Updated 28 minutes ago

Clear
Clear
45.5 °F
Feels Like 46 °F
N
0.0
Wind Variable Wind from ENE
Gusts 0.0 mph

Today
High -- | Low -- °F
--% Chance of Precip.
Yesterday
High -- | Low -- °F
Precip. -- in
6:33 AM 7:45 PM
Waning Gibbous, 49% visible
Pressure 30.04 in
Visibility 3.0 miles
Clouds Few 400 ft
Windchill 46 °F
Dew Point 41 °F
Humidity 85%
Rainfall 0.00 in
Snow Depth Not available.
UV 0 out of 12
Pollen 3.30 out of 12
Air Quality Not available.
Flu Activity Not available.
METAR KBLI 051153Z 00000KT 3SM R16/5000VP6000FT BR FEW004 07/06 A3002 RMK AO2 SLP172 70001 T00670061 10094 20067 53006
Pressure 30.04 in
Visibility 3.0 miles
Clouds Few 400 ft
Windchill 46 °F
Dew Point 41 °F
Humidity 85%
Rainfall 0.00 in
Snow Depth Not available.
UV 0 out of 12
Pollen 3.30 out of 12
Air Quality Not available.
Flu Activity Not available.
METAR KBLI 051153Z 00000KT 3SM R16/5000VP6000FT BR FEW004 07/06 A3002 RMK AO2 SLP172 70001 T00670061 10094 20067 53006

10-Day Weather Forecast

×

Almanac

Astronomy

Sep. 05, 2015 Rise Set
Actual Time
Civil Twilight
Nautical Twilight
Astronomical Twilight
Moon
Length of Visible Light
Length of Day
Tomorrow will be .
, % of the Moon is Illuminated

Today's Extremes

State Highs State Lows

Community

WunderPhotos

Upload Photos

1,852,453 photos uploaded!

WunderBlogs® & News

Nearby

Air Quality

  Air Quality AQ Index Pollutant
Not available.

Snow Depth

Station Depth Elevation

Earthquake Activity

City Distance Mag. Time & Date
Minimum magnitude displayed is 2.5.

Coastal Water Temperatures

Place Temperature

Stations

Nearby Weather Stations

Station Location Temp. Windchill Dew Point Humidity Wind Precip. Elev Updated Type